createdAt,value
2019-03-16T00:02:02.803Z,87.60
2019-03-16T00:04:46.474Z,86.00
2019-03-16T00:07:32.864Z,85.00
2019-03-16T00:10:02.188Z,85.70
2019-03-16T00:12:39.246Z,87.00
2019-03-16T00:15:16.249Z,86.50
2019-03-16T00:17:53.336Z,86.40
2019-03-16T00:20:30.329Z,86.50
2019-03-16T00:23:07.388Z,87.40
2019-03-16T00:25:44.377Z,88.60
2019-03-16T00:28:21.412Z,90.90
2019-03-16T00:30:58.420Z,92.40
2019-03-16T00:33:35.574Z,93.80
2019-03-16T00:36:12.648Z,95.60
2019-03-16T00:38:49.660Z,96.80
2019-03-16T00:41:26.708Z,97.40
2019-03-16T00:44:03.717Z,99.00
2019-03-16T00:46:40.761Z,99.60
2019-03-16T00:49:23.593Z,99.90
2019-03-16T00:52:00.620Z,99.90
2019-03-16T00:54:37.641Z,99.90
2019-03-16T00:57:14.738Z,99.90
2019-03-16T00:59:51.771Z,99.90
2019-03-16T01:02:28.861Z,99.90
2019-03-16T01:05:06.697Z,98.60
2019-03-16T01:07:43.790Z,97.70
2019-03-16T01:10:20.816Z,97.50
2019-03-16T01:12:57.881Z,97.10
2019-03-16T01:15:34.965Z,96.10
2019-03-16T01:18:12.115Z,95.10
2019-03-16T01:20:49.181Z,95.20
2019-03-16T01:23:26.217Z,95.20
2019-03-16T01:26:12.746Z,95.00
2019-03-16T01:28:51.337Z,95.40
2019-03-16T01:31:28.623Z,95.40
2019-03-16T01:34:05.679Z,95.30
2019-03-16T01:36:43.305Z,95.10
2019-03-16T01:39:20.433Z,93.80
2019-03-16T01:41:57.478Z,93.40
2019-03-16T01:44:34.561Z,92.50
2019-03-16T01:47:11.609Z,88.70
2019-03-16T01:49:48.725Z,86.60
2019-03-16T01:52:25.756Z,86.30
2019-03-16T01:55:02.870Z,85.40
2019-03-16T01:57:40.954Z,84.70
2019-03-16T02:00:18.033Z,86.10
2019-03-16T02:02:55.979Z,86.00
2019-03-16T02:05:33.130Z,85.70
2019-03-16T02:08:10.331Z,86.60
2019-03-16T02:10:47.438Z,87.70
2019-03-16T02:13:24.729Z,87.30
2019-03-16T02:16:10.927Z,88.50
2019-03-16T02:18:40.615Z,89.20
2019-03-16T02:21:17.709Z,82.70
2019-03-16T02:23:54.758Z,81.00
2019-03-16T02:26:31.900Z,79.60
2019-03-16T02:29:09.007Z,79.60
2019-03-16T02:31:46.216Z,77.40
2019-03-16T02:34:23.447Z,78.30
2019-03-16T02:37:00.550Z,78.20
2019-03-16T02:39:37.646Z,78.40
2019-03-16T02:42:15.408Z,77.80
2019-03-16T02:44:52.640Z,79.60
2019-03-16T02:47:29.665Z,79.80
2019-03-16T02:50:11.234Z,79.90
2019-03-16T02:52:50.095Z,80.30
2019-03-16T02:55:26.979Z,81.40
2019-03-16T02:58:04.526Z,82.40
2019-03-16T03:00:41.570Z,83.30
2019-03-16T03:03:29.070Z,83.30
2019-03-16T03:05:58.583Z,83.60
2019-03-16T03:08:35.767Z,84.20
2019-03-16T03:11:12.877Z,82.40
2019-03-16T03:13:49.875Z,78.80
2019-03-16T03:16:26.960Z,78.80
2019-03-16T03:19:03.969Z,77.20
2019-03-16T03:21:40.974Z,77.70
2019-03-16T03:24:18.039Z,79.10
2019-03-16T03:26:55.114Z,78.90
2019-03-16T03:29:32.166Z,81.30
2019-03-16T03:32:09.261Z,76.80
2019-03-16T03:34:46.327Z,76.40
2019-03-16T03:37:25.052Z,77.80
2019-03-16T03:40:23.256Z,76.30
2019-03-16T03:43:09.740Z,76.00
2019-03-16T03:45:59.994Z,77.10
2019-03-16T03:48:52.984Z,76.80
2019-03-16T03:51:30.015Z,77.30
2019-03-16T03:54:07.096Z,77.80
2019-03-16T03:56:44.096Z,77.80
2019-03-16T03:59:21.155Z,76.80
2019-03-16T04:01:58.121Z,76.20
2019-03-16T04:04:35.187Z,76.30
2019-03-16T04:07:12.605Z,76.60
2019-03-16T04:09:51.284Z,76.10
2019-03-16T04:12:30.241Z,76.80
2019-03-16T04:15:11.496Z,77.50
2019-03-16T04:17:48.596Z,77.20
2019-03-16T04:20:25.665Z,78.70
2019-03-16T04:23:02.644Z,78.70
2019-03-16T04:25:39.722Z,78.20
2019-03-16T04:28:16.732Z,78.50
2019-03-16T04:30:53.786Z,77.60
2019-03-16T04:33:30.762Z,78.30
2019-03-16T04:36:08.680Z,78.80
2019-03-16T04:38:45.610Z,77.90
2019-03-16T04:41:23.406Z,78.10
2019-03-16T04:44:00.386Z,78.50
2019-03-16T04:46:37.515Z,79.30
2019-03-16T04:49:14.534Z,79.10
2019-03-16T04:51:51.590Z,79.20
2019-03-16T04:54:28.660Z,80.20
2019-03-16T04:57:05.757Z,80.40
2019-03-16T04:59:42.804Z,80.50
2019-03-16T05:02:19.891Z,80.90
2019-03-16T05:04:56.911Z,80.70
2019-03-16T05:07:34.196Z,80.40
2019-03-16T05:10:11.613Z,81.10
2019-03-16T05:12:48.848Z,81.30
2019-03-16T05:15:25.912Z,80.30
2019-03-16T05:18:03.044Z,80.50
2019-03-16T05:20:40.068Z,80.30
2019-03-16T05:23:17.231Z,80.40
2019-03-16T05:25:54.640Z,80.20
2019-03-16T05:28:31.816Z,80.90
2019-03-16T05:31:08.907Z,80.30
2019-03-16T05:33:47.094Z,81.30
2019-03-16T05:36:24.219Z,81.10
2019-03-16T05:39:01.353Z,81.00
2019-03-16T05:41:38.366Z,80.70
2019-03-16T05:44:15.429Z,81.00
2019-03-16T05:46:52.451Z,81.40
2019-03-16T05:49:29.556Z,80.60
2019-03-16T05:52:06.652Z,80.20
2019-03-16T05:54:43.771Z,80.00
2019-03-16T05:57:20.801Z,80.70
2019-03-16T05:59:57.976Z,82.10
2019-03-16T06:02:35.081Z,81.70
2019-03-16T06:05:12.889Z,80.90
2019-03-16T06:07:49.981Z,80.30
2019-03-16T06:10:27.055Z,81.10
2019-03-16T06:13:04.277Z,80.90
2019-03-16T06:15:41.322Z,80.60
2019-03-16T06:18:18.403Z,81.40
2019-03-16T06:20:56.122Z,81.40
2019-03-16T06:23:33.730Z,82.00
2019-03-16T06:26:10.760Z,81.20
2019-03-16T06:28:47.920Z,81.90
2019-03-16T06:31:24.943Z,82.30
2019-03-16T06:34:02.124Z,81.50
2019-03-16T06:36:39.166Z,80.50
2019-03-16T06:39:16.265Z,80.80
2019-03-16T06:41:53.308Z,80.40
2019-03-16T06:44:30.465Z,80.70
2019-03-16T06:47:07.525Z,79.40
2019-03-16T06:49:44.650Z,80.10
2019-03-16T06:52:21.696Z,81.10
2019-03-16T06:55:00.513Z,81.00
2019-03-16T06:57:37.624Z,80.60
2019-03-16T07:00:18.498Z,80.90
2019-03-16T07:02:55.559Z,81.20
2019-03-16T07:05:38.442Z,79.70
2019-03-16T07:08:11.397Z,79.70
2019-03-16T07:10:48.604Z,80.50
2019-03-16T07:13:25.698Z,79.40
2019-03-16T07:16:02.954Z,80.30
2019-03-16T07:18:40.083Z,80.50
2019-03-16T07:21:17.283Z,79.90
2019-03-16T07:23:54.898Z,80.10
2019-03-16T07:26:34.714Z,80.50
2019-03-16T07:29:11.914Z,79.00
2019-03-16T07:31:49.226Z,79.70
2019-03-16T07:34:28.103Z,79.10
2019-03-16T07:37:06.598Z,78.90
2019-03-16T07:39:43.799Z,78.50
2019-03-16T07:42:22.566Z,79.60
2019-03-16T07:45:08.288Z,78.50
2019-03-16T07:47:39.127Z,78.80
2019-03-16T07:50:16.431Z,76.50
2019-03-16T07:52:57.455Z,77.10
2019-03-16T07:55:35.791Z,77.80
2019-03-16T07:58:13.554Z,76.90
2019-03-16T08:00:51.736Z,77.40
2019-03-16T08:03:29.768Z,77.20
2019-03-16T08:06:07.702Z,76.90
2019-03-16T08:08:46.268Z,78.40
2019-03-16T08:11:23.650Z,78.30
2019-03-16T08:14:00.852Z,76.40
2019-03-16T08:16:38.016Z,75.80
2019-03-16T08:19:15.117Z,76.90
2019-03-16T08:21:58.402Z,75.90
2019-03-16T08:24:35.546Z,75.80
2019-03-16T08:27:21.301Z,76.00
2019-03-16T08:29:58.357Z,75.60
2019-03-16T08:32:35.538Z,76.00
2019-03-16T08:35:12.713Z,75.30
2019-03-16T08:37:50.009Z,76.30
2019-03-16T08:40:27.185Z,76.40
2019-03-16T08:43:04.987Z,75.20
2019-03-16T08:45:42.007Z,76.60
2019-03-16T08:48:23.098Z,74.80
2019-03-16T08:50:57.771Z,72.80
2019-03-16T08:53:34.871Z,72.90
2019-03-16T08:56:12.694Z,74.30
2019-03-16T08:58:51.013Z,74.10
2019-03-16T09:01:28.067Z,73.40
2019-03-16T09:04:05.169Z,73.00
2019-03-16T09:06:42.189Z,74.50
2019-03-16T09:09:19.298Z,72.60
2019-03-16T09:11:58.306Z,72.60
2019-03-16T09:14:35.088Z,72.70
2019-03-16T09:17:12.183Z,73.60
2019-03-16T09:19:49.349Z,71.80
2019-03-16T09:22:26.452Z,73.10
2019-03-16T09:25:09.297Z,72.00
2019-03-16T09:27:46.404Z,71.30
2019-03-16T09:30:23.462Z,71.90
2019-03-16T09:33:00.546Z,69.60
2019-03-16T09:35:37.629Z,72.50
2019-03-16T09:38:14.707Z,71.10
2019-03-16T09:40:51.801Z,69.90
2019-03-16T09:43:28.869Z,70.50
2019-03-16T09:46:05.944Z,72.00
2019-03-16T09:48:43.010Z,72.60
2019-03-16T09:51:20.042Z,71.60
2019-03-16T09:53:57.171Z,72.50
2019-03-16T09:56:35.237Z,71.90
2019-03-16T09:59:18.880Z,74.60
2019-03-16T10:01:55.944Z,72.70
2019-03-16T10:04:33.140Z,73.80
2019-03-16T10:07:10.353Z,71.80
2019-03-16T10:09:50.497Z,72.20
2019-03-16T10:12:27.592Z,71.90
2019-03-16T10:15:07.665Z,69.90
2019-03-16T10:17:45.001Z,69.40
2019-03-16T10:20:22.094Z,70.10
2019-03-16T10:22:59.365Z,70.80
2019-03-16T10:25:36.566Z,71.30
2019-03-16T10:28:13.777Z,69.70
2019-03-16T10:30:53.737Z,70.20
2019-03-16T10:33:30.980Z,69.80
2019-03-16T10:36:08.337Z,69.30
2019-03-16T10:38:45.659Z,69.20
2019-03-16T10:41:22.826Z,68.70
2019-03-16T10:44:00.023Z,68.60
2019-03-16T10:46:37.163Z,68.80
2019-03-16T10:49:14.404Z,66.90
2019-03-16T10:51:51.625Z,65.70
2019-03-16T10:54:29.443Z,67.10
2019-03-16T10:57:08.227Z,68.50
2019-03-16T10:59:45.398Z,68.60
2019-03-16T11:02:22.561Z,67.00
2019-03-16T11:04:59.680Z,66.70
2019-03-16T11:07:36.832Z,67.20
2019-03-16T11:10:14.575Z,67.40
2019-03-16T11:12:51.661Z,67.30
2019-03-16T11:15:28.764Z,68.30
2019-03-16T11:18:05.980Z,69.50
2019-03-16T11:20:43.909Z,69.90
2019-03-16T11:23:21.024Z,70.90
2019-03-16T11:25:58.168Z,69.30
2019-03-16T11:28:35.239Z,69.20
2019-03-16T11:31:12.792Z,69.30
2019-03-16T11:33:50.258Z,69.40
2019-03-16T11:36:27.438Z,67.70
2019-03-16T11:39:06.723Z,68.30
2019-03-16T11:41:43.872Z,68.20
2019-03-16T11:44:21.002Z,69.00
2019-03-16T11:46:58.326Z,68.50
2019-03-16T11:49:35.337Z,66.00
2019-03-16T11:52:12.604Z,65.80
2019-03-16T11:54:49.623Z,64.70
2019-03-16T11:57:26.858Z,64.80
2019-03-16T12:00:05.981Z,62.20
2019-03-16T12:02:43.096Z,65.10
2019-03-16T12:05:20.175Z,65.70
2019-03-16T12:07:57.298Z,65.40
2019-03-16T12:10:34.350Z,63.90
2019-03-16T12:13:17.414Z,62.60
2019-03-16T12:15:50.156Z,62.50
2019-03-16T12:18:27.229Z,62.20
2019-03-16T12:21:06.116Z,61.70
2019-03-16T12:23:43.166Z,64.90
2019-03-16T12:26:20.386Z,60.80
2019-03-16T12:28:57.405Z,59.90
2019-03-16T12:31:34.770Z,60.40
2019-03-16T12:34:12.348Z,61.20
2019-03-16T12:36:49.721Z,61.60
2019-03-16T12:39:26.749Z,60.80
2019-03-16T12:42:05.479Z,63.00
2019-03-16T12:44:42.491Z,62.70
2019-03-16T12:47:19.633Z,62.50
2019-03-16T12:49:56.707Z,62.80
2019-03-16T12:52:33.756Z,65.00
2019-03-16T12:55:12.826Z,63.80
2019-03-16T12:57:49.904Z,66.00
2019-03-16T13:00:26.966Z,62.60
2019-03-16T13:03:04.033Z,64.50
2019-03-16T13:05:41.100Z,63.00
2019-03-16T13:08:18.217Z,63.50
2019-03-16T13:10:55.269Z,61.90
2019-03-16T13:13:34.034Z,61.00
2019-03-16T13:16:11.072Z,62.60
2019-03-16T13:18:48.159Z,60.70
2019-03-16T13:21:25.194Z,60.00
2019-03-16T13:24:02.320Z,58.70
2019-03-16T13:26:39.410Z,59.00
2019-03-16T13:29:16.539Z,58.30
2019-03-16T13:31:53.780Z,58.70
2019-03-16T13:34:31.689Z,59.20
2019-03-16T13:37:08.802Z,59.40
2019-03-16T13:39:45.897Z,59.40
2019-03-16T13:42:23.027Z,58.10
2019-03-16T13:45:01.565Z,58.60
2019-03-16T13:47:38.649Z,57.50
2019-03-16T13:50:17.563Z,58.20
2019-03-16T13:52:54.899Z,57.90
2019-03-16T13:55:31.975Z,59.60
2019-03-16T13:58:09.086Z,57.50
2019-03-16T14:00:46.152Z,59.30
2019-03-16T14:03:23.686Z,59.20
2019-03-16T14:06:02.098Z,59.90
2019-03-16T14:08:40.155Z,58.30
2019-03-16T14:11:17.203Z,59.90
2019-03-16T14:13:54.349Z,58.50
2019-03-16T14:16:31.366Z,60.00
2019-03-16T14:19:08.978Z,59.90
2019-03-16T14:21:46.219Z,58.20
2019-03-16T14:24:23.531Z,57.60
2019-03-16T14:27:00.870Z,59.30
2019-03-16T14:29:37.963Z,59.00
2019-03-16T14:32:15.438Z,59.40
2019-03-16T14:34:53.077Z,59.80
2019-03-16T14:37:30.307Z,60.70
2019-03-16T14:40:13.044Z,61.00
2019-03-16T14:42:50.158Z,61.80
2019-03-16T14:45:27.538Z,63.00
2019-03-16T14:48:04.600Z,63.80
2019-03-16T14:50:41.672Z,64.90
2019-03-16T14:53:18.750Z,65.30
2019-03-16T14:55:56.467Z,65.00
2019-03-16T14:58:33.490Z,65.60
2019-03-16T15:01:13.122Z,65.70
2019-03-16T15:03:49.265Z,65.80
2019-03-16T15:06:26.482Z,66.60
2019-03-16T15:09:03.861Z,69.20
2019-03-16T15:11:40.956Z,68.80
2019-03-16T15:14:22.048Z,70.30
2019-03-16T15:16:56.736Z,69.50
2019-03-16T15:19:33.741Z,72.80
2019-03-16T15:22:12.085Z,71.60
2019-03-16T15:24:49.415Z,71.10
2019-03-16T15:27:26.481Z,73.20
2019-03-16T15:30:04.547Z,74.60
2019-03-16T15:32:41.971Z,75.80
2019-03-16T15:35:19.108Z,76.10
2019-03-16T15:37:56.177Z,76.40
2019-03-16T15:40:34.613Z,78.30
2019-03-16T15:43:11.698Z,79.10
2019-03-16T15:45:48.746Z,78.50
2019-03-16T15:48:26.901Z,79.40
2019-03-16T15:51:03.966Z,79.80
2019-03-16T15:53:41.061Z,81.40
2019-03-16T15:56:18.123Z,82.10
2019-03-16T15:58:55.174Z,82.10
2019-03-16T16:01:32.237Z,83.50
2019-03-16T16:04:09.271Z,83.30
2019-03-16T16:06:46.332Z,84.20
2019-03-16T16:09:23.422Z,85.30
2019-03-16T16:12:00.488Z,86.00
2019-03-16T16:14:37.570Z,87.20
2019-03-16T16:17:14.648Z,87.70
2019-03-16T16:19:51.701Z,88.20
2019-03-16T16:22:28.774Z,89.60
2019-03-16T16:25:10.312Z,89.10
2019-03-16T16:27:47.418Z,90.40
2019-03-16T16:30:26.162Z,90.80
2019-03-16T16:33:03.569Z,90.90
2019-03-16T16:35:41.069Z,91.70
2019-03-16T16:38:18.172Z,92.10
2019-03-16T16:40:55.340Z,92.90
2019-03-16T16:43:32.403Z,93.70
2019-03-16T16:46:09.436Z,94.10
2019-03-16T16:48:46.472Z,94.90
2019-03-16T16:51:23.504Z,95.90
2019-03-16T16:54:00.546Z,96.40
2019-03-16T16:56:37.620Z,96.90
2019-03-16T16:59:14.678Z,96.60
2019-03-16T17:01:51.751Z,97.50
2019-03-16T17:04:28.829Z,97.90
2019-03-16T17:07:10.457Z,98.10
2019-03-16T17:09:47.721Z,98.20
2019-03-16T17:12:24.834Z,98.20
2019-03-16T17:15:01.929Z,98.10
2019-03-16T17:17:39.008Z,98.40
2019-03-16T17:20:16.376Z,98.70
2019-03-16T17:22:54.026Z,99.20
2019-03-16T17:25:32.540Z,99.00
2019-03-16T17:28:11.947Z,99.10
2019-03-16T17:30:49.031Z,98.80
2019-03-16T17:33:26.401Z,99.00
2019-03-16T17:36:03.647Z,99.50
2019-03-16T17:38:40.755Z,99.40
2019-03-16T17:41:19.447Z,99.40
2019-03-16T17:43:56.529Z,99.40
2019-03-16T17:46:33.595Z,99.70
2019-03-16T17:49:10.675Z,99.90
2019-03-16T17:51:47.746Z,99.90
2019-03-16T17:54:24.794Z,99.80
2019-03-16T17:57:01.909Z,99.90
2019-03-16T17:59:38.918Z,99.90
2019-03-16T18:02:16.010Z,99.90
2019-03-16T18:04:53.098Z,99.90
2019-03-16T18:07:30.229Z,99.90
2019-03-16T18:10:09.536Z,99.90
2019-03-16T18:12:46.637Z,99.90
2019-03-16T18:15:23.726Z,99.90
2019-03-16T18:18:00.816Z,99.90
2019-03-16T18:20:37.872Z,99.90
2019-03-16T18:23:14.985Z,99.90
2019-03-16T18:25:52.086Z,99.90
2019-03-16T18:28:29.169Z,99.90
2019-03-16T18:31:08.196Z,99.90
2019-03-16T18:33:48.918Z,99.90
2019-03-16T18:36:26.690Z,99.90
2019-03-16T18:39:07.291Z,99.90
2019-03-16T18:41:44.850Z,99.90
2019-03-16T18:44:21.893Z,99.90
2019-03-16T18:46:59.002Z,99.90
2019-03-16T18:49:36.079Z,99.90
2019-03-16T18:52:13.275Z,99.90
2019-03-16T18:54:50.362Z,99.90
2019-03-16T18:57:27.538Z,99.90
2019-03-16T19:00:07.571Z,99.90
2019-03-16T19:02:44.618Z,99.90
2019-03-16T19:05:21.753Z,99.90
2019-03-16T19:07:58.808Z,99.90
2019-03-16T19:10:37.755Z,99.90
2019-03-16T19:13:14.805Z,99.90
2019-03-16T19:15:51.864Z,99.90
2019-03-16T19:18:28.852Z,99.90
2019-03-16T19:21:05.938Z,99.90
2019-03-16T19:23:44.560Z,99.90
2019-03-16T19:26:21.636Z,99.90
2019-03-16T19:28:58.857Z,99.90
2019-03-16T19:31:35.906Z,99.90
2019-03-16T19:34:13.099Z,99.90
2019-03-16T19:36:52.881Z,99.90
2019-03-16T19:39:29.956Z,99.90
2019-03-16T19:42:07.640Z,99.90
2019-03-16T19:44:44.755Z,99.90
2019-03-16T19:47:21.868Z,99.90
2019-03-16T19:49:58.976Z,99.90
2019-03-16T19:52:36.000Z,99.90
2019-03-16T19:55:27.099Z,99.90
2019-03-16T19:58:10.067Z,99.90
2019-03-16T20:00:47.220Z,99.90
2019-03-16T20:03:24.341Z,99.90
2019-03-16T20:06:01.479Z,99.90
2019-03-16T20:08:38.525Z,99.90
2019-03-16T20:11:15.608Z,99.90
2019-03-16T20:13:52.682Z,99.90
2019-03-16T20:16:29.780Z,99.90
2019-03-16T20:19:06.795Z,99.90
2019-03-16T20:21:43.873Z,99.90
2019-03-16T20:24:21.133Z,99.90
2019-03-16T20:26:58.287Z,99.90
2019-03-16T20:29:35.880Z,99.90
2019-03-16T20:32:13.437Z,99.90
2019-03-16T20:34:50.568Z,99.90
2019-03-16T20:37:27.631Z,99.90
2019-03-16T20:40:15.373Z,99.90
2019-03-16T20:42:52.405Z,99.90
2019-03-16T20:45:29.569Z,99.90
2019-03-16T20:48:06.776Z,99.90
2019-03-16T20:50:43.906Z,99.90
2019-03-16T20:53:20.957Z,99.90
2019-03-16T20:55:59.793Z,99.90
2019-03-16T20:58:36.838Z,99.90
2019-03-16T21:01:14.160Z,99.90
2019-03-16T21:03:51.236Z,99.90
2019-03-16T21:06:29.975Z,99.90
2019-03-16T21:09:07.361Z,99.90
2019-03-16T21:11:44.599Z,99.90
2019-03-16T21:14:21.702Z,99.90
2019-03-16T21:16:58.883Z,99.90
2019-03-16T21:19:35.986Z,99.90
2019-03-16T21:22:13.867Z,99.90
2019-03-16T21:24:50.905Z,99.90
2019-03-16T21:27:28.068Z,99.90
2019-03-16T21:30:08.403Z,99.90
2019-03-16T21:32:45.566Z,99.90
2019-03-16T21:35:22.641Z,99.90
2019-03-16T21:37:59.721Z,99.90
2019-03-16T21:40:36.765Z,99.90
2019-03-16T21:43:13.846Z,99.90
2019-03-16T21:45:50.861Z,99.90
2019-03-16T21:48:28.028Z,99.90
2019-03-16T21:51:05.079Z,99.90
2019-03-16T21:53:42.188Z,99.90
2019-03-16T21:56:19.309Z,99.90
2019-03-16T21:58:56.473Z,99.90
2019-03-16T22:01:33.400Z,99.90
2019-03-16T22:04:10.497Z,99.90
2019-03-16T22:06:47.541Z,99.90
2019-03-16T22:09:24.611Z,99.90
2019-03-16T22:12:01.675Z,99.90
2019-03-16T22:14:38.754Z,99.90
2019-03-16T22:17:15.807Z,99.90
2019-03-16T22:19:52.869Z,99.90
2019-03-16T22:22:29.947Z,99.90
2019-03-16T22:25:07.899Z,99.90
2019-03-16T22:27:44.991Z,99.90
2019-03-16T22:30:22.020Z,99.90
2019-03-16T22:32:59.061Z,99.90
2019-03-16T22:35:36.119Z,99.90
2019-03-16T22:38:13.168Z,99.90
2019-03-16T22:40:50.215Z,99.90
2019-03-16T22:43:27.249Z,99.90
2019-03-16T22:46:04.440Z,99.90
2019-03-16T22:48:41.483Z,99.90
2019-03-16T22:51:18.540Z,99.90
2019-03-16T22:53:55.583Z,99.90
2019-03-16T22:56:32.676Z,99.90
2019-03-16T22:59:09.828Z,99.90
2019-03-16T23:01:46.884Z,99.90
2019-03-16T23:04:24.280Z,99.90
2019-03-16T23:07:01.468Z,99.90
2019-03-16T23:09:38.524Z,99.90
2019-03-16T23:12:16.052Z,99.90
2019-03-16T23:14:59.053Z,99.90
2019-03-16T23:17:39.298Z,99.90
2019-03-16T23:20:24.079Z,99.90
2019-03-16T23:23:13.949Z,99.90
2019-03-16T23:25:56.138Z,99.90
2019-03-16T23:28:33.404Z,99.90
2019-03-16T23:31:12.534Z,99.90
2019-03-16T23:33:49.160Z,99.90
2019-03-16T23:36:26.170Z,99.90
2019-03-16T23:39:03.787Z,99.90
2019-03-16T23:41:40.828Z,99.90
2019-03-16T23:44:17.932Z,99.90
2019-03-16T23:46:54.996Z,99.90
2019-03-16T23:49:32.089Z,99.90
2019-03-16T23:52:09.177Z,99.90
2019-03-16T23:54:46.280Z,99.90
2019-03-16T23:57:23.395Z,99.90
